sensor_id;sensor_type;location;lat;lon;timestamp;pressure;altitude;pressure_sealevel;temperature;humidity
49104;BME280;34915;52.926;11.116;2022-11-13T00:01:37;103028.31;;;2.25;100.00
49104;BME280;34915;52.926;11.116;2022-11-13T00:04:03;103019.56;;;2.26;100.00
49104;BME280;34915;52.926;11.116;2022-11-13T00:06:29;103027.41;;;2.31;100.00
49104;BME280;34915;52.926;11.116;2022-11-13T00:08:54;103023.06;;;2.28;100.00
49104;BME280;34915;52.926;11.116;2022-11-13T00:11:20;103028.31;;;2.25;100.00
49104;BME280;34915;52.926;11.116;2022-11-13T00:13:47;103017.84;;;2.22;100.00
49104;BME280;34915;52.926;11.116;2022-11-13T00:16:16;103016.09;;;2.21;100.00
49104;BME280;34915;52.926;11.116;2022-11-13T00:18:42;103015.22;;;2.18;100.00
49104;BME280;34915;52.926;11.116;2022-11-13T00:21:17;103012.59;;;2.19;100.00
49104;BME280;34915;52.926;11.116;2022-11-13T00:23:44;103014.34;;;2.17;100.00
49104;BME280;34915;52.926;11.116;2022-11-13T00:26:14;103016.09;;;2.12;100.00
49104;BME280;34915;52.926;11.116;2022-11-13T00:28:41;103009.13;;;2.05;100.00
49104;BME280;34915;52.926;11.116;2022-11-13T00:31:08;103014.38;;;1.99;100.00
49104;BME280;34915;52.926;11.116;2022-11-13T00:33:34;103003.91;;;1.96;100.00
49104;BME280;34915;52.926;11.116;2022-11-13T00:36:18;102999.53;;;2.00;100.00
49104;BME280;34915;52.926;11.116;2022-11-13T00:38:44;103006.53;;;1.99;100.00
49104;BME280;34915;52.926;11.116;2022-11-13T00:41:10;103000.41;;;1.97;100.00
49104;BME280;34915;52.926;11.116;2022-11-13T00:43:35;103003.91;;;1.96;100.00
49104;BME280;34915;52.926;11.116;2022-11-13T00:46:01;102996.94;;;1.95;100.00
49104;BME280;34915;52.926;11.116;2022-11-13T00:48:29;103000.41;;;1.94;100.00
49104;BME280;34915;52.926;11.116;2022-11-13T00:50:55;102989.09;;;1.93;100.00
49104;BME280;34915;52.926;11.116;2022-11-13T00:53:21;102991.72;;;1.93;100.00
49104;BME280;34915;52.926;11.116;2022-11-13T00:55:47;102989.97;;;1.94;100.00
49104;BME280;34915;52.926;11.116;2022-11-13T00:58:13;102993.47;;;1.96;100.00
49104;BME280;34915;52.926;11.116;2022-11-13T01:00:41;102990.84;;;2.01;100.00
49104;BME280;34915;52.926;11.116;2022-11-13T01:03:08;102995.22;;;2.06;100.00
49104;BME280;34915;52.926;11.116;2022-11-13T01:05:38;102995.22;;;2.06;100.00
49104;BME280;34915;52.926;11.116;2022-11-13T01:08:05;102995.22;;;2.06;100.00
49104;BME280;34915;52.926;11.116;2022-11-13T01:10:32;102993.44;;;2.11;100.00
49104;BME280;34915;52.926;11.116;2022-11-13T01:12:58;102989.97;;;2.18;100.00
49104;BME280;34915;52.926;11.116;2022-11-13T01:15:25;102985.59;;;2.14;100.00
49104;BME280;34915;52.926;11.116;2022-11-13T01:17:51;102981.25;;;2.22;100.00
49104;BME280;34915;52.926;11.116;2022-11-13T01:20:21;102988.19;;;2.23;100.00
49104;BME280;34915;52.926;11.116;2022-11-13T01:22:47;102986.47;;;2.10;100.00
49104;BME280;34915;52.926;11.116;2022-11-13T01:25:13;102990.00;;;2.00;100.00
49104;BME280;34915;52.926;11.116;2022-11-13T01:27:38;102985.63;;;1.91;100.00
49104;BME280;34915;52.926;11.116;2022-11-13T01:30:05;102989.97;;;1.83;100.00
49104;BME280;34915;52.926;11.116;2022-11-13T01:32:31;102986.50;;;1.81;100.00
49104;BME280;34915;52.926;11.116;2022-11-13T01:34:57;102984.75;;;1.77;100.00
49104;BME280;34915;52.926;11.116;2022-11-13T01:37:23;102980.38;;;1.76;100.00
49104;BME280;34915;52.926;11.116;2022-11-13T01:39:49;102980.38;;;1.70;100.00
49104;BME280;34915;52.926;11.116;2022-11-13T01:42:14;102971.69;;;1.68;100.00
49104;BME280;34915;52.926;11.116;2022-11-13T01:47:11;102964.69;;;1.64;100.00
49104;BME280;34915;52.926;11.116;2022-11-13T01:49:39;102965.59;;;1.66;100.00
49104;BME280;34915;52.926;11.116;2022-11-13T01:52:11;102960.38;;;1.66;100.00
49104;BME280;34915;52.926;11.116;2022-11-13T01:54:46;102959.47;;;1.73;100.00
49104;BME280;34915;52.926;11.116;2022-11-13T01:57:13;102956.88;;;1.88;100.00
49104;BME280;34915;52.926;11.116;2022-11-13T01:59:44;102962.13;;;1.88;100.00
49104;BME280;34915;52.926;11.116;2022-11-13T02:02:11;102958.59;;;1.86;100.00
49104;BME280;34915;52.926;11.116;2022-11-13T02:04:37;102967.34;;;1.82;100.00
49104;BME280;34915;52.926;11.116;2022-11-13T02:07:08;102960.38;;;1.75;100.00
49104;BME280;34915;52.926;11.116;2022-11-13T02:09:43;102951.63;;;1.70;100.00
49104;BME280;34915;52.926;11.116;2022-11-13T02:12:11;102957.75;;;1.69;100.00
49104;BME280;34915;52.926;11.116;2022-11-13T02:14:40;102956.00;;;1.65;100.00
49104;BME280;34915;52.926;11.116;2022-11-13T02:17:10;102956.88;;;1.64;100.00
49104;BME280;34915;52.926;11.116;2022-11-13T02:19:42;102959.47;;;1.68;100.00
49104;BME280;34915;52.926;11.116;2022-11-13T02:24:47;102942.94;;;1.65;100.00
49104;BME280;34915;52.926;11.116;2022-11-13T02:27:34;102942.09;;;1.66;100.00
49104;BME280;34915;52.926;11.116;2022-11-13T02:32:58;102938.59;;;1.65;100.00
49104;BME280;34915;52.926;11.116;2022-11-13T02:35:28;102944.69;;;1.66;100.00
49104;BME280;34915;52.926;11.116;2022-11-13T02:37:56;102941.19;;;1.61;100.00
49104;BME280;34915;52.926;11.116;2022-11-13T02:40:22;102944.69;;;1.57;100.00
49104;BME280;34915;52.926;11.116;2022-11-13T02:42:48;102946.41;;;1.58;100.00
49104;BME280;34915;52.926;11.116;2022-11-13T02:45:14;102943.81;;;1.55;100.00
49104;BME280;34915;52.926;11.116;2022-11-13T02:47:39;102956.88;;;1.55;100.00
49104;BME280;34915;52.926;11.116;2022-11-13T02:50:06;102956.88;;;1.52;100.00
49104;BME280;34915;52.926;11.116;2022-11-13T02:52:32;102949.88;;;1.51;100.00
49104;BME280;34915;52.926;11.116;2022-11-13T02:54:58;102939.44;;;1.42;100.00
49104;BME280;34915;52.926;11.116;2022-11-13T02:57:24;102949.88;;;1.39;100.00
49104;BME280;34915;52.926;11.116;2022-11-13T02:59:49;102943.78;;;1.37;100.00
49104;BME280;34915;52.926;11.116;2022-11-13T03:02:15;102941.19;;;1.37;100.00
49104;BME280;34915;52.926;11.116;2022-11-13T03:04:41;102942.03;;;1.39;100.00
49104;BME280;34915;52.926;11.116;2022-11-13T03:07:06;102945.56;;;1.41;100.00
49104;BME280;34915;52.926;11.116;2022-11-13T03:09:32;102941.19;;;1.40;100.00
49104;BME280;34915;52.926;11.116;2022-11-13T03:11:57;102937.72;;;1.44;100.00
49104;BME280;34915;52.926;11.116;2022-11-13T03:14:23;102929.00;;;1.42;100.00
49104;BME280;34915;52.926;11.116;2022-11-13T03:16:49;102934.22;;;1.42;100.00
49104;BME280;34915;52.926;11.116;2022-11-13T03:19:14;102934.22;;;1.42;100.00
49104;BME280;34915;52.926;11.116;2022-11-13T03:21:40;102927.28;;;1.41;100.00
49104;BME280;34915;52.926;11.116;2022-11-13T03:24:06;102929.88;;;1.41;100.00
49104;BME280;34915;52.926;11.116;2022-11-13T03:26:32;102929.00;;;1.44;100.00
49104;BME280;34915;52.926;11.116;2022-11-13T03:28:58;102936.81;;;1.42;100.00
49104;BME280;34915;52.926;11.116;2022-11-13T03:31:28;102941.19;;;1.46;100.00
49104;BME280;34915;52.926;11.116;2022-11-13T03:33:54;102935.13;;;1.53;100.00
49104;BME280;34915;52.926;11.116;2022-11-13T03:36:19;102932.50;;;1.56;100.00
49104;BME280;34915;52.926;11.116;2022-11-13T03:38:45;102936.84;;;1.54;100.00
49104;BME280;34915;52.926;11.116;2022-11-13T03:41:11;102934.22;;;1.54;100.00
49104;BME280;34915;52.926;11.116;2022-11-13T03:43:40;102923.78;;;1.54;100.00
49104;BME280;34915;52.926;11.116;2022-11-13T03:46:05;102927.28;;;1.62;100.00
49104;BME280;34915;52.926;11.116;2022-11-13T03:48:32;102915.06;;;1.65;100.00
49104;BME280;34915;52.926;11.116;2022-11-13T03:50:57;102912.47;;;1.70;100.00
49104;BME280;34915;52.926;11.116;2022-11-13T03:53:23;102909.88;;;1.79;100.00
49104;BME280;34915;52.926;11.116;2022-11-13T03:55:49;102913.34;;;1.72;100.00
49104;BME280;34915;52.926;11.116;2022-11-13T03:58:14;102911.59;;;1.68;100.00
49104;BME280;34915;52.926;11.116;2022-11-13T04:00:41;102912.47;;;1.61;100.00
49104;BME280;34915;52.926;11.116;2022-11-13T04:03:07;102900.31;;;1.58;100.00
49104;BME280;34915;52.926;11.116;2022-11-13T04:05:32;102898.56;;;1.57;100.00
49104;BME280;34915;52.926;11.116;2022-11-13T04:07:58;102912.47;;;1.56;100.00
49104;BME280;34915;52.926;11.116;2022-11-13T04:10:24;102915.09;;;1.55;100.00
49104;BME280;34915;52.926;11.116;2022-11-13T04:12:50;102903.78;;;1.54;100.00
49104;BME280;34915;52.926;11.116;2022-11-13T04:15:16;102905.50;;;1.54;100.00
49104;BME280;34915;52.926;11.116;2022-11-13T04:17:42;102908.13;;;1.57;100.00
49104;BME280;34915;52.926;11.116;2022-11-13T04:20:08;102902.03;;;1.59;100.00
49104;BME280;34915;52.926;11.116;2022-11-13T04:22:34;102902.91;;;1.63;100.00
49104;BME280;34915;52.926;11.116;2022-11-13T04:25:00;102902.03;;;1.65;100.00
49104;BME280;34915;52.926;11.116;2022-11-13T04:27:25;102901.16;;;1.68;100.00
49104;BME280;34915;52.926;11.116;2022-11-13T04:29:51;102906.38;;;1.74;100.00
49104;BME280;34915;52.926;11.116;2022-11-13T04:32:16;102903.75;;;1.74;100.00
49104;BME280;34915;52.926;11.116;2022-11-13T04:34:42;102906.38;;;1.74;100.00
49104;BME280;34915;52.926;11.116;2022-11-13T04:37:08;102898.53;;;1.71;100.00
49104;BME280;34915;52.926;11.116;2022-11-13T04:39:33;102894.19;;;1.73;100.00
49104;BME280;34915;52.926;11.116;2022-11-13T04:41:59;102901.16;;;1.68;100.00
49104;BME280;34915;52.926;11.116;2022-11-13T04:44:43;102893.31;;;1.77;100.00
49104;BME280;34915;52.926;11.116;2022-11-13T04:47:09;102895.91;;;1.77;100.00
49104;BME280;34915;52.926;11.116;2022-11-13T04:49:35;102886.38;;;1.77;100.00
49104;BME280;34915;52.926;11.116;2022-11-13T04:52:00;102880.25;;;1.80;100.00
49104;BME280;34915;52.926;11.116;2022-11-13T04:54:26;102892.44;;;1.81;100.00
49104;BME280;34915;52.926;11.116;2022-11-13T04:56:52;102882.84;;;1.81;100.00
49104;BME280;34915;52.926;11.116;2022-11-13T04:59:17;102875.00;;;1.89;100.00
49104;BME280;34915;52.926;11.116;2022-11-13T05:01:43;102880.22;;;1.94;100.00
49104;BME280;34915;52.926;11.116;2022-11-13T05:04:13;102881.09;;;1.98;100.00
49104;BME280;34915;52.926;11.116;2022-11-13T05:06:40;102876.72;;;1.98;100.00
49104;BME280;34915;52.926;11.116;2022-11-13T05:09:05;102881.94;;;2.04;100.00
49104;BME280;34915;52.926;11.116;2022-11-13T05:11:31;102886.28;;;2.08;100.00
49104;BME280;34915;52.926;11.116;2022-11-13T05:13:56;102888.03;;;2.11;100.00
49104;BME280;34915;52.926;11.116;2022-11-13T05:16:22;102883.66;;;2.17;100.00
49104;BME280;34915;52.926;11.116;2022-11-13T05:18:48;102877.56;;;2.21;100.00
49104;BME280;34915;52.926;11.116;2022-11-13T05:21:14;102880.16;;;2.21;100.00
49104;BME280;34915;52.926;11.116;2022-11-13T05:23:39;102877.56;;;2.21;100.00
49104;BME280;34915;52.926;11.116;2022-11-13T05:26:10;102870.53;;;2.29;100.00
49104;BME280;34915;52.926;11.116;2022-11-13T05:28:38;102874.03;;;2.31;100.00
49104;BME280;34915;52.926;11.116;2022-11-13T05:33:30;102882.72;;;2.39;100.00
49104;BME280;34915;52.926;11.116;2022-11-13T05:36:00;102869.63;;;2.39;100.00
49104;BME280;34915;52.926;11.116;2022-11-13T05:38:27;102872.25;;;2.39;100.00
49104;BME280;34915;52.926;11.116;2022-11-13T05:40:53;102867.88;;;2.44;100.00
49104;BME280;34915;52.926;11.116;2022-11-13T05:43:18;102862.66;;;2.44;100.00
49104;BME280;34915;52.926;11.116;2022-11-13T05:45:46;102867.88;;;2.47;100.00
49104;BME280;34915;52.926;11.116;2022-11-13T05:48:11;102862.63;;;2.50;100.00
49104;BME280;34915;52.926;11.116;2022-11-13T05:50:37;102863.47;;;2.53;100.00
49104;BME280;34915;52.926;11.116;2022-11-13T05:53:03;102867.81;;;2.59;100.00
49104;BME280;34915;52.926;11.116;2022-11-13T05:55:28;102860.81;;;2.61;100.00
49104;BME280;34915;52.926;11.116;2022-11-13T05:57:54;102865.19;;;2.63;100.00
49104;BME280;34915;52.926;11.116;2022-11-13T06:00:19;102864.28;;;2.69;100.00
49104;BME280;34915;52.926;11.116;2022-11-13T06:02:45;102862.50;;;2.74;100.00
49104;BME280;34915;52.926;11.116;2022-11-13T06:05:11;102857.25;;;2.77;100.00
49104;BME280;34915;52.926;11.116;2022-11-13T06:07:36;102863.31;;;2.80;100.00
49104;BME280;34915;52.926;11.116;2022-11-13T06:10:02;102865.91;;;2.85;100.00
49104;BME280;34915;52.926;11.116;2022-11-13T06:12:28;102858.94;;;2.87;100.00
49104;BME280;34915;52.926;11.116;2022-11-13T06:14:54;102864.19;;;2.84;100.00
49104;BME280;34915;52.926;11.116;2022-11-13T06:17:19;102854.56;;;2.86;100.00
49104;BME280;34915;52.926;11.116;2022-11-13T06:19:45;102853.72;;;2.87;100.00
49104;BME280;34915;52.926;11.116;2022-11-13T06:22:12;102855.47;;;2.88;100.00
49104;BME280;34915;52.926;11.116;2022-11-13T06:24:38;102852.78;;;2.96;100.00
49104;BME280;34915;52.926;11.116;2022-11-13T06:27:04;102858.81;;;3.04;100.00
49104;BME280;34915;52.926;11.116;2022-11-13T06:29:30;102862.28;;;3.09;100.00
49104;BME280;34915;52.926;11.116;2022-11-13T06:31:56;102851.75;;;3.18;100.00
49104;BME280;34915;52.926;11.116;2022-11-13T06:34:21;102850.84;;;3.19;100.00
49104;BME280;34915;52.926;11.116;2022-11-13T06:36:47;102850.69;;;3.43;100.00
49104;BME280;34915;52.926;11.116;2022-11-13T06:39:12;102853.28;;;3.46;100.00
49104;BME280;34915;52.926;11.116;2022-11-13T06:41:38;102865.41;;;3.56;100.00
49104;BME280;34915;52.926;11.116;2022-11-13T06:44:04;102857.31;;;3.80;100.00
49104;BME280;34915;52.926;11.116;2022-11-13T06:46:29;102859.81;;;3.91;100.00
49104;BME280;34915;52.926;11.116;2022-11-13T06:48:57;102849.22;;;4.00;100.00
49104;BME280;34915;52.926;11.116;2022-11-13T06:51:25;102846.53;;;4.06;100.00
49104;BME280;34915;52.926;11.116;2022-11-13T06:53:51;102847.31;;;4.17;100.00
49104;BME280;34915;52.926;11.116;2022-11-13T06:56:17;102841.97;;;4.23;100.00
49104;BME280;34915;52.926;11.116;2022-11-13T06:58:43;102844.41;;;4.38;100.00
49104;BME280;34915;52.926;11.116;2022-11-13T07:01:14;102854.06;;;4.36;100.00
49104;BME280;34915;52.926;11.116;2022-11-13T07:03:41;102854.00;;;4.42;100.00
49104;BME280;34915;52.926;11.116;2022-11-13T07:06:13;102857.34;;;4.53;100.00
49104;BME280;34915;52.926;11.116;2022-11-13T07:08:40;102848.53;;;4.57;100.00
49104;BME280;34915;52.926;11.116;2022-11-13T07:11:06;102850.22;;;4.64;100.00
49104;BME280;34915;52.926;11.116;2022-11-13T07:13:32;102846.63;;;4.71;100.00
49104;BME280;34915;52.926;11.116;2022-11-13T07:16:02;102844.75;;;4.79;100.00
49104;BME280;34915;52.926;11.116;2022-11-13T07:18:29;102848.22;;;4.81;100.00
49104;BME280;34915;52.926;11.116;2022-11-13T07:20:55;102855.25;;;4.79;100.00
49104;BME280;34915;52.926;11.116;2022-11-13T07:23:21;102844.69;;;4.82;100.00
49104;BME280;34915;52.926;11.116;2022-11-13T07:25:47;102845.56;;;4.85;100.00
49104;BME280;34915;52.926;11.116;2022-11-13T07:28:13;102854.25;;;4.87;100.00
49104;BME280;34915;52.926;11.116;2022-11-13T07:30:39;102851.53;;;4.93;100.00
49104;BME280;34915;52.926;11.116;2022-11-13T07:33:04;102854.97;;;4.96;100.00
49104;BME280;34915;52.926;11.116;2022-11-13T07:35:30;102858.44;;;5.01;100.00
49104;BME280;34915;52.926;11.116;2022-11-13T07:37:56;102857.53;;;5.01;100.00
49104;BME280;34915;52.926;11.116;2022-11-13T07:40:22;102858.38;;;5.04;100.00
49104;BME280;34915;52.926;11.116;2022-11-13T07:42:58;102860.97;;;5.07;100.00
49104;BME280;34915;52.926;11.116;2022-11-13T07:45:25;102866.94;;;5.15;100.00
49104;BME280;34915;52.926;11.116;2022-11-13T07:48:02;102865.16;;;5.20;100.00
49104;BME280;34915;52.926;11.116;2022-11-13T07:50:30;102863.34;;;5.22;100.00
49104;BME280;34915;52.926;11.116;2022-11-13T07:53:01;102865.00;;;5.29;100.00
49104;BME280;34915;52.926;11.116;2022-11-13T07:55:28;102866.75;;;5.30;100.00
49104;BME280;34915;52.926;11.116;2022-11-13T07:57:55;102858.72;;;5.39;100.00
49104;BME280;34915;52.926;11.116;2022-11-13T08:00:21;102850.56;;;5.54;100.00
49104;BME280;34915;52.926;11.116;2022-11-13T08:02:47;102848.94;;;5.47;100.00
49104;BME280;34915;52.926;11.116;2022-11-13T08:05:14;102852.16;;;5.64;100.00
49104;BME280;34915;52.926;11.116;2022-11-13T08:07:40;102849.84;;;5.95;100.00
49104;BME280;34915;52.926;11.116;2022-11-13T08:10:06;102853.38;;;5.94;100.00
49104;BME280;34915;52.926;11.116;2022-11-13T08:12:31;102843.59;;;6.01;100.00
49104;BME280;34915;52.926;11.116;2022-11-13T08:14:59;102849.69;;;6.04;100.00
49104;BME280;34915;52.926;11.116;2022-11-13T08:17:24;102844.41;;;6.04;100.00
49104;BME280;34915;52.926;11.116;2022-11-13T08:19:50;102846.13;;;6.05;100.00
49104;BME280;34915;52.926;11.116;2022-11-13T08:22:16;102847.50;;;6.24;100.00
49104;BME280;34915;52.926;11.116;2022-11-13T08:24:41;102844.06;;;6.22;100.00
49104;BME280;34915;52.926;11.116;2022-11-13T08:27:07;102836.81;;;6.33;100.00
49104;BME280;34915;52.926;11.116;2022-11-13T08:29:32;102837.66;;;6.35;100.00
49104;BME280;34915;52.926;11.116;2022-11-13T08:31:58;102835.88;;;6.36;100.00
49104;BME280;34915;52.926;11.116;2022-11-13T08:34:24;102840.09;;;6.44;100.00
49104;BME280;34915;52.926;11.116;2022-11-13T08:36:50;102836.38;;;6.54;100.00
49104;BME280;34915;52.926;11.116;2022-11-13T08:39:15;102831.69;;;6.66;100.00
49104;BME280;34915;52.926;11.116;2022-11-13T08:41:41;102830.78;;;6.69;100.00
49104;BME280;34915;52.926;11.116;2022-11-13T08:44:06;102830.44;;;6.84;100.00
49104;BME280;34915;52.926;11.116;2022-11-13T08:46:32;102831.47;;;6.77;100.00
49104;BME280;34915;52.926;11.116;2022-11-13T08:48:58;102824.88;;;6.95;100.00
49104;BME280;34915;52.926;11.116;2022-11-13T08:51:23;102821.50;;;6.90;100.00
49104;BME280;34915;52.926;11.116;2022-11-13T08:53:49;102822.31;;;6.92;100.00
49104;BME280;34915;52.926;11.116;2022-11-13T08:56:14;102819.34;;;7.07;100.00
49104;BME280;34915;52.926;11.116;2022-11-13T08:58:40;102826.34;;;7.08;100.00
49104;BME280;34915;52.926;11.116;2022-11-13T09:01:05;102828.38;;;6.97;100.00
49104;BME280;34915;52.926;11.116;2022-11-13T09:03:31;102822.72;;;7.12;100.00
49104;BME280;34915;52.926;11.116;2022-11-13T09:05:57;102834.88;;;7.19;100.00
49104;BME280;34915;52.926;11.116;2022-11-13T09:08:22;102838.25;;;7.24;100.00
49104;BME280;34915;52.926;11.116;2022-11-13T09:10:48;102827.56;;;7.30;100.00
49104;BME280;34915;52.926;11.116;2022-11-13T09:13:14;102829.53;;;7.22;100.00
49104;BME280;34915;52.926;11.116;2022-11-13T09:15:39;102818.69;;;7.34;100.00
49104;BME280;34915;52.926;11.116;2022-11-13T09:18:08;102827.66;;;7.26;100.00
49104;BME280;34915;52.926;11.116;2022-11-13T09:20:33;102822.13;;;7.36;100.00
49104;BME280;34915;52.926;11.116;2022-11-13T09:23:01;102821.97;;;7.42;100.00
49104;BME280;34915;52.926;11.116;2022-11-13T09:25:29;102817.66;;;7.39;100.00
49104;BME280;34915;52.926;11.116;2022-11-13T09:27:57;102820.09;;;7.47;100.00
49104;BME280;34915;52.926;11.116;2022-11-13T09:30:23;102818.22;;;7.52;100.00
49104;BME280;34915;52.926;11.116;2022-11-13T09:32:53;102821.81;;;7.48;100.00
49104;BME280;34915;52.926;11.116;2022-11-13T09:35:20;102826.72;;;7.63;100.00
49104;BME280;34915;52.926;11.116;2022-11-13T09:40:56;102824.19;;;7.60;100.00
49104;BME280;34915;52.926;11.116;2022-11-13T09:43:43;102810.75;;;7.69;100.00
49104;BME280;34915;52.926;11.116;2022-11-13T09:48:58;102817.44;;;7.82;100.00
49104;BME280;34915;52.926;11.116;2022-11-13T09:51:31;102811.38;;;7.77;100.00
49104;BME280;34915;52.926;11.116;2022-11-13T09:54:00;102817.00;;;7.96;100.00
49104;BME280;34915;52.926;11.116;2022-11-13T09:56:31;102824.16;;;7.91;100.00
49104;BME280;34915;52.926;11.116;2022-11-13T09:59:25;102822.28;;;7.96;100.00
49104;BME280;34915;52.926;11.116;2022-11-13T10:05:14;102814.94;;;8.07;100.00
49104;BME280;34915;52.926;11.116;2022-11-13T10:10:54;102805.13;;;8.14;100.00
49104;BME280;34915;52.926;11.116;2022-11-13T10:13:31;102799.00;;;8.10;100.00
49104;BME280;34915;52.926;11.116;2022-11-13T10:18:49;102796.97;;;8.21;100.00
49104;BME280;34915;52.926;11.116;2022-11-13T10:21:30;102794.06;;;8.30;100.00
49104;BME280;34915;52.926;11.116;2022-11-13T10:24:01;102788.06;;;8.25;100.00
49104;BME280;34915;52.926;11.116;2022-11-13T10:26:28;102786.25;;;8.27;100.00
49104;BME280;34915;52.926;11.116;2022-11-13T10:29:09;102778.94;;;8.35;100.00
49104;BME280;34915;52.926;11.116;2022-11-13T10:31:43;102773.75;;;8.32;100.00
49104;BME280;34915;52.926;11.116;2022-11-13T10:34:10;102779.03;;;8.32;100.00
49104;BME280;34915;52.926;11.116;2022-11-13T10:39:40;102782.53;;;8.34;100.00
49104;BME280;34915;52.926;11.116;2022-11-13T10:42:28;102779.03;;;8.32;100.00
49104;BME280;34915;52.926;11.116;2022-11-13T10:44:58;102779.97;;;8.31;100.00
49104;BME280;34915;52.926;11.116;2022-11-13T10:47:27;102773.66;;;8.35;100.00
49104;BME280;34915;52.926;11.116;2022-11-13T10:49:56;102771.13;;;8.32;100.00
49104;BME280;34915;52.926;11.116;2022-11-13T10:52:25;102768.47;;;8.32;100.00
49104;BME280;34915;52.926;11.116;2022-11-13T10:57:39;102768.31;;;8.38;100.00
49104;BME280;34915;52.926;11.116;2022-11-13T11:00:20;102765.44;;;8.45;100.00
49104;BME280;34915;52.926;11.116;2022-11-13T11:02:49;102758.66;;;8.37;100.00
49104;BME280;34915;52.926;11.116;2022-11-13T11:05:21;102752.38;;;8.41;100.00
49104;BME280;34915;52.926;11.116;2022-11-13T11:07:47;102748.72;;;8.45;100.00
49104;BME280;34915;52.926;11.116;2022-11-13T11:10:32;102749.47;;;8.50;100.00
49104;BME280;34915;52.926;11.116;2022-11-13T11:13:22;102743.44;;;8.45;100.00
49104;BME280;34915;52.926;11.116;2022-11-13T11:15:52;102739.72;;;8.52;100.00
49104;BME280;34915;52.926;11.116;2022-11-13T11:18:29;102723.66;;;8.58;100.00
49104;BME280;34915;52.926;11.116;2022-11-13T11:20:58;102725.59;;;8.53;100.00
49104;BME280;34915;52.926;11.116;2022-11-13T11:26:32;102711.44;;;8.54;100.00
49104;BME280;34915;52.926;11.116;2022-11-13T11:29:27;102700.44;;;8.69;100.00
49104;BME280;34915;52.926;11.116;2022-11-13T11:35:13;102691.88;;;8.61;100.00
49104;BME280;34915;52.926;11.116;2022-11-13T11:37:49;102682.88;;;8.66;100.00
49104;BME280;34915;52.926;11.116;2022-11-13T11:40:36;102682.84;;;8.68;100.00
49104;BME280;34915;52.926;11.116;2022-11-13T11:43:19;102677.25;;;8.77;100.00
49104;BME280;34915;52.926;11.116;2022-11-13T11:45:48;102685.91;;;8.82;100.00
49104;BME280;34915;52.926;11.116;2022-11-13T11:48:17;102684.06;;;8.83;100.00
49104;BME280;34915;52.926;11.116;2022-11-13T11:50:50;102687.72;;;8.80;100.00
49104;BME280;34915;52.926;11.116;2022-11-13T11:54:09;102673.28;;;8.89;100.00
49104;BME280;34915;52.926;11.116;2022-11-13T11:56:30;102667.81;;;8.95;100.00
49104;BME280;34915;52.926;11.116;2022-11-13T11:59:03;102662.03;;;8.84;100.00
49104;BME280;34915;52.926;11.116;2022-11-13T12:02:01;102669.97;;;8.84;100.00
49104;BME280;34915;52.926;11.116;2022-11-13T12:05:19;102656.13;;;8.77;100.00
49104;BME280;34915;52.926;11.116;2022-11-13T12:07:56;102655.91;;;8.82;100.00
49104;BME280;34915;52.926;11.116;2022-11-13T12:10:39;102654.19;;;8.82;100.00
49104;BME280;34915;52.926;11.116;2022-11-13T12:15:46;102652.38;;;8.83;100.00
49104;BME280;34915;52.926;11.116;2022-11-13T12:20:43;102638.03;;;8.90;100.00
49104;BME280;34915;52.926;11.116;2022-11-13T12:26:17;102635.81;;;9.03;100.00
49104;BME280;34915;52.926;11.116;2022-11-13T12:28:50;102635.97;;;8.98;100.00
49104;BME280;34915;52.926;11.116;2022-11-13T12:34:33;102628.44;;;9.12;100.00
49104;BME280;34915;52.926;11.116;2022-11-13T12:37:05;102635.03;;;9.01;100.00
49104;BME280;34915;52.926;11.116;2022-11-13T12:39:55;102626.72;;;9.11;100.00
49104;BME280;34915;52.926;11.116;2022-11-13T12:47:19;102621.31;;;9.14;100.00
49104;BME280;34915;52.926;11.116;2022-11-13T12:49:45;102619.69;;;9.10;100.00
49104;BME280;34915;52.926;11.116;2022-11-13T12:52:21;102614.28;;;9.13;100.00
49104;BME280;34915;52.926;11.116;2022-11-13T12:54:49;102609.66;;;9.20;100.00
49104;BME280;34915;52.926;11.116;2022-11-13T12:57:18;102612.25;;;9.21;100.00
49104;BME280;34915;52.926;11.116;2022-11-13T12:59:45;102615.47;;;9.29;100.00
49104;BME280;34915;52.926;11.116;2022-11-13T13:11:21;102611.31;;;9.46;100.00
49104;BME280;34915;52.926;11.116;2022-11-13T13:16:28;102598.25;;;9.42;100.00
49104;BME280;34915;52.926;11.116;2022-11-13T13:19:06;102601.00;;;9.39;100.00
49104;BME280;34915;52.926;11.116;2022-11-13T13:21:41;102602.16;;;9.32;100.00
49104;BME280;34915;52.926;11.116;2022-11-13T13:24:26;102598.09;;;9.22;100.00
49104;BME280;34915;52.926;11.116;2022-11-13T13:26:52;102598.09;;;9.22;100.00
49104;BME280;34915;52.926;11.116;2022-11-13T13:29:23;102594.44;;;9.26;100.00
49104;BME280;34915;52.926;11.116;2022-11-13T13:35:01;102587.53;;;9.22;100.00
49104;BME280;34915;52.926;11.116;2022-11-13T13:48:12;102571.03;;;9.16;100.00
49104;BME280;34915;52.926;11.116;2022-11-13T13:50:43;102571.88;;;9.16;100.00
49104;BME280;34915;52.926;11.116;2022-11-13T13:53:13;102568.44;;;9.14;100.00
49104;BME280;34915;52.926;11.116;2022-11-13T13:55:45;102562.28;;;9.14;100.00
49104;BME280;34915;52.926;11.116;2022-11-13T13:58:15;102566.81;;;9.10;100.00
49104;BME280;34915;52.926;11.116;2022-11-13T14:00:41;102554.88;;;9.23;100.00
49104;BME280;34915;52.926;11.116;2022-11-13T14:03:21;102555.13;;;9.40;100.00
49104;BME280;34915;52.926;11.116;2022-11-13T14:05:47;102554.91;;;9.46;100.00
49104;BME280;34915;52.926;11.116;2022-11-13T14:08:23;102559.38;;;9.44;100.00